Time;durP1;ratioP1;P1;durP2;ratioP2;P2;SDS_P1;SDS_P2;PMS_P1;PMS_P2;Temp;Humidity;BMP_temperature;BMP_pressure;BME280_temperature;BME280_humidity;BME280_pressure;Samples;Min_cycle;Max_cycle;Signal;HPM_P1;HPM_P2
2022/08/19 00:01:36;;;;;;;0.47;0.40;;;;;;;28.89;39.45;98827.81;5109457;28;20039;-68
2022/08/19 00:04:05;;;;;;;1.10;0.60;;;;;;;28.92;39.77;98826.94;5109560;28;20043;-68
2022/08/19 00:06:30;;;;;;;1.02;0.50;;;;;;;28.92;39.56;98820.53;5109246;28;20047;-67
2022/08/19 00:08:59;;;;;;;1.15;0.60;;;;;;;28.89;39.53;98816.56;5109551;28;20050;-59
2022/08/19 00:11:27;;;;;;;1.17;0.60;;;;;;;28.92;39.55;98818.50;5109541;28;20541;-59
2022/08/19 00:13:56;;;;;;;0.73;0.47;;;;;;;28.90;39.67;98806.88;5112681;28;20050;-67
2022/08/19 00:16:23;;;;;;;0.70;0.50;;;;;;;28.92;39.41;98815.69;5113146;28;20388;-59
2022/08/19 00:18:48;;;;;;;2.67;0.55;;;;;;;28.91;39.49;98813.31;5113225;28;20130;-59
2022/08/19 00:21:14;;;;;;;0.98;0.63;;;;;;;28.92;39.49;98817.72;5113157;28;20126;-59
2022/08/19 00:23:42;;;;;;;0.50;0.50;;;;;;;28.91;39.56;98825.38;5112860;28;20082;-67
2022/08/19 00:26:10;;;;;;;0.73;0.50;;;;;;;28.92;39.65;98824.13;5112626;28;20059;-68
2022/08/19 00:28:36;;;;;;;0.95;0.60;;;;;;;28.91;39.51;98830.22;5094505;28;20522;-67
2022/08/19 00:31:04;;;;;;;0.75;0.60;;;;;;;28.92;39.73;98831.78;5112907;28;20075;-60
2022/08/19 00:33:33;;;;;;;0.93;0.60;;;;;;;28.92;39.74;98832.56;5112791;28;20097;-59
2022/08/19 00:36:04;;;;;;;0.80;0.60;;;;;;;28.93;39.66;98834.16;5112859;28;20039;-59
2022/08/19 00:38:29;;;;;;;0.55;0.50;;;;;;;28.91;39.55;98830.22;5112850;28;20044;-59
2022/08/19 00:40:55;;;;;;;1.60;0.60;;;;;;;28.93;39.58;98842.59;5112892;28;20156;-67
2022/08/19 00:43:23;;;;;;;0.82;0.40;;;;;;;28.93;39.70;98839.78;5112823;28;20036;-67
2022/08/19 00:45:49;;;;;;;1.02;0.60;;;;;;;28.90;39.92;98837.84;5112552;28;20042;-59
2022/08/19 00:48:16;;;;;;;0.98;0.40;;;;;;;28.93;39.49;98836.97;5112551;28;20047;-60
2022/08/19 00:50:43;;;;;;;1.10;0.60;;;;;;;28.94;39.51;98834.97;5112545;28;20548;-60
2022/08/19 00:53:17;;;;;;;0.82;0.57;;;;;;;28.92;39.73;98834.59;5112629;28;20051;-60
2022/08/19 00:55:46;;;;;;;0.47;0.40;;;;;;;28.93;39.62;98834.16;5112558;28;20092;-67
2022/08/19 00:58:15;;;;;;;0.60;0.50;;;;;;;28.93;39.66;98831.34;5112473;28;20080;-59
2022/08/19 01:00:41;;;;;;;0.93;0.63;;;;;;;28.92;39.48;98821.31;5094032;28;20472;-60
2022/08/19 01:03:09;;;;;;;0.68;0.50;;;;;;;28.92;39.67;98826.94;5112497;28;20531;-59
2022/08/19 01:05:36;;;;;;;0.60;0.45;;;;;;;28.93;39.50;98820.06;5112381;28;20054;-60
2022/08/19 01:08:04;;;;;;;0.60;0.40;;;;;;;28.93;39.76;98819.28;5112249;28;20040;-67
2022/08/19 01:10:35;;;;;;;0.70;0.50;;;;;;;28.91;39.55;98814.09;5112416;28;20499;-67
2022/08/19 01:13:02;;;;;;;0.52;0.40;;;;;;;28.94;39.48;98818.06;5112297;28;20075;-60
2022/08/19 01:15:35;;;;;;;0.70;0.60;;;;;;;28.92;39.62;98814.91;5112303;28;20043;-59
2022/08/19 01:18:05;;;;;;;0.82;0.60;;;;;;;28.94;39.39;98809.63;5112315;28;20047;-68
2022/08/19 01:20:31;;;;;;;0.90;0.52;;;;;;;28.93;39.54;98808.03;5112136;28;20097;-67
2022/08/19 01:22:58;;;;;;;0.70;0.52;;;;;;;28.93;39.63;98808.81;5111877;28;20515;-67
2022/08/19 01:25:31;;;;;;;0.93;0.68;;;;;;;28.92;39.66;98806.44;5112117;28;20135;-68
2022/08/19 01:27:57;;;;;;;0.75;0.50;;;;;;;28.92;39.75;98804.41;5112036;28;20057;-67
2022/08/19 01:30:31;;;;;;;0.68;0.52;;;;;;;28.92;39.60;98800.81;5111938;28;20122;-60
2022/08/19 01:32:59;;;;;;;1.42;0.60;;;;;;;28.91;39.64;98794.41;5111896;28;20123;-68
2022/08/19 01:35:28;;;;;;;0.50;0.50;;;;;;;28.94;39.84;98796.34;5111695;28;20043;-67
2022/08/19 01:37:58;;;;;;;0.60;0.47;;;;;;;28.94;39.70;98801.19;5111773;28;20052;-68
2022/08/19 01:40:28;;;;;;;0.88;0.60;;;;;;;28.93;39.63;98800.38;5111876;28;20046;-67
2022/08/19 01:42:54;;;;;;;0.63;0.50;;;;;;;28.95;39.73;98797.13;5111905;28;20449;-60
2022/08/19 01:45:22;;;;;;;0.90;0.60;;;;;;;28.94;39.63;98801.97;5111584;28;20542;-60
2022/08/19 01:47:48;;;;;;;0.98;0.60;;;;;;;28.93;39.67;98803.19;5111638;28;20499;-68
2022/08/19 01:50:13;;;;;;;1.08;0.57;;;;;;;28.93;39.46;98802.41;5111596;28;20051;-68
2022/08/19 01:52:40;;;;;;;0.45;0.45;;;;;;;28.92;39.56;98807.25;5111644;28;20042;-59
2022/08/19 01:55:09;;;;;;;0.55;0.45;;;;;;;28.93;39.55;98806.00;5111541;28;20519;-59
2022/08/19 01:57:35;;;;;;;0.95;0.60;;;;;;;28.93;39.56;98808.03;5111418;28;20419;-67
2022/08/19 02:00:04;;;;;;;1.33;0.60;;;;;;;28.94;39.73;98801.97;5111505;28;20576;-67
2022/08/19 02:02:30;;;;;;;0.90;0.55;;;;;;;28.94;39.81;98807.59;5111491;28;20088;-59
2022/08/19 02:04:55;;;;;;;0.50;0.50;;;;;;;28.93;39.61;98813.66;5111472;28;20449;-67
2022/08/19 02:07:21;;;;;;;1.15;0.70;;;;;;;28.95;39.83;98816.84;5111336;28;20051;-68
2022/08/19 02:09:47;;;;;;;0.85;0.50;;;;;;;28.94;39.85;98818.88;5111179;28;20481;-60
2022/08/19 02:12:14;;;;;;;0.70;0.50;;;;;;;28.94;39.93;98815.25;5110818;28;20074;-59
2022/08/19 02:14:40;;;;;;;0.88;0.50;;;;;;;28.92;39.77;98804.41;5111251;28;20043;-59
2022/08/19 02:17:06;;;;;;;0.43;0.40;;;;;;;28.95;39.64;98814.03;5111231;28;20119;-67
2022/08/19 02:19:32;;;;;;;0.82;0.52;;;;;;;28.95;39.98;98812.00;5111053;28;20055;-60
2022/08/19 02:21:58;;;;;;;0.60;0.40;;;;;;;28.94;39.86;98804.00;5111029;28;20075;-60
2022/08/19 02:24:24;;;;;;;0.98;0.55;;;;;;;28.95;39.56;98803.56;5110967;28;20036;-67
2022/08/19 02:26:49;;;;;;;0.75;0.45;;;;;;;28.94;39.83;98801.97;5110897;28;20070;-68
2022/08/19 02:29:15;;;;;;;0.98;0.63;;;;;;;28.95;39.71;98809.19;5110920;28;20070;-67
2022/08/19 02:31:40;;;;;;;1.35;0.60;;;;;;;28.95;39.70;98811.22;5110999;28;20079;-67
2022/08/19 02:34:06;;;;;;;0.43;0.43;;;;;;;28.94;39.80;98807.59;5110898;28;20509;-67
2022/08/19 02:36:31;;;;;;;0.82;0.50;;;;;;;28.94;39.57;98818.88;5110357;28;20067;-67
2022/08/19 02:38:56;;;;;;;0.77;0.60;;;;;;;28.96;39.79;98827.66;5111008;28;20044;-59
2022/08/19 02:41:31;;;;;;;0.70;0.60;;;;;;;28.94;39.88;98830.13;5110819;28;20031;-67
2022/08/19 02:43:58;;;;;;;0.93;0.43;;;;;;;28.94;39.80;98832.94;5107557;28;20047;-60
2022/08/19 02:46:28;;;;;;;0.82;0.60;;;;;;;28.95;39.91;98831.69;5110571;28;20503;-67
2022/08/19 02:48:56;;;;;;;0.40;0.40;;;;;;;28.96;39.81;98832.50;5110620;28;20097;-67
2022/08/19 02:51:25;;;;;;;0.98;0.60;;;;;;;28.93;39.95;98834.16;5110398;28;20418;-67
2022/08/19 02:53:51;;;;;;;0.70;0.50;;;;;;;28.94;39.76;98823.72;5110406;28;20468;-59
2022/08/19 02:56:17;;;;;;;0.63;0.50;;;;;;;28.91;39.86;98824.56;5110490;28;20036;-67
2022/08/19 02:58:43;;;;;;;0.70;0.50;;;;;;;28.96;39.70;98824.84;5110591;28;20092;-68
2022/08/19 03:01:10;;;;;;;0.57;0.50;;;;;;;28.96;39.86;98833.28;5110494;28;20052;-59
2022/08/19 03:03:35;;;;;;;0.40;0.40;;;;;;;28.94;39.91;98827.31;5110434;28;20071;-67
2022/08/19 03:06:08;;;;;;;0.95;0.50;;;;;;;28.95;39.61;98836.53;5110340;28;20075;-59
2022/08/19 03:08:33;;;;;;;0.63;0.40;;;;;;;28.96;39.96;98838.91;5110400;28;20043;-60
2022/08/19 03:10:59;;;;;;;0.50;0.40;;;;;;;28.95;39.92;98842.97;5110193;28;20047;-67
2022/08/19 03:13:24;;;;;;;1.10;0.70;;;;;;;28.96;39.82;98836.09;5110394;28;20092;-68
2022/08/19 03:15:50;;;;;;;0.47;0.47;;;;;;;28.96;39.94;98846.56;5110251;28;20161;-67
2022/08/19 03:18:16;;;;;;;1.05;0.65;;;;;;;28.97;39.70;98839.69;5110255;28;20507;-60
2022/08/19 03:20:48;;;;;;;0.93;0.52;;;;;;;28.96;39.82;98841.72;5110148;28;20051;-67
2022/08/19 03:23:15;;;;;;;0.67;0.60;;;;;;;28.96;39.93;98847.34;5110247;28;20185;-68
2022/08/19 03:25:42;;;;;;;0.55;0.40;;;;;;;28.96;39.83;98843.75;5110203;28;20051;-67
2022/08/19 03:28:09;;;;;;;0.40;0.40;;;;;;;28.95;39.70;98851.41;5110017;28;20576;-67
2022/08/19 03:30:35;;;;;;;0.80;0.50;;;;;;;28.96;39.84;98857.84;5110076;28;20047;-68
2022/08/19 03:33:01;;;;;;;0.75;0.60;;;;;;;28.96;39.79;98855.81;5110028;28;20039;-60
2022/08/19 03:35:27;;;;;;;0.52;0.40;;;;;;;28.93;39.77;98851.03;5110026;28;20543;-59
2022/08/19 03:37:53;;;;;;;0.85;0.50;;;;;;;28.92;39.61;98855.09;5109964;28;20051;-59
2022/08/19 03:40:19;;;;;;;0.70;0.50;;;;;;;28.95;39.89;98862.66;5109768;28;20043;-68
2022/08/19 03:42:45;;;;;;;0.80;0.50;;;;;;;28.96;39.86;98864.25;5109847;28;20044;-67
2022/08/19 03:45:11;;;;;;;0.70;0.50;;;;;;;28.94;40.04;98869.53;5109681;28;20396;-67
2022/08/19 03:47:37;;;;;;;1.02;0.70;;;;;;;28.97;39.70;98879.91;5108597;28;20582;-67
2022/08/19 03:50:04;;;;;;;0.45;0.40;;;;;;;28.94;39.88;98871.56;5109860;28;20176;-68
2022/08/19 03:52:30;;;;;;;0.60;0.50;;;;;;;28.96;39.80;98877.53;5109842;28;20050;-67
2022/08/19 03:54:55;;;;;;;0.77;0.60;;;;;;;28.97;39.86;98884.75;5109811;28;20043;-67
2022/08/19 03:57:20;;;;;;;0.47;0.40;;;;;;;28.95;39.89;98879.56;5109596;28;20039;-59
2022/08/19 03:59:46;;;;;;;0.80;0.60;;;;;;;28.96;39.93;98883.97;5109732;28;20052;-60
2022/08/19 04:02:12;;;;;;;0.80;0.50;;;;;;;28.97;39.79;98879.13;5109774;28;20036;-59
2022/08/19 04:04:43;;;;;;;1.02;0.60;;;;;;;28.96;39.88;98881.16;5109768;28;20046;-60
2022/08/19 04:07:10;;;;;;;0.88;0.50;;;;;;;28.97;39.77;98881.94;5109435;28;20418;-59
2022/08/19 04:09:36;;;;;;;0.50;0.45;;;;;;;28.97;39.75;98893.97;5109499;28;20043;-60
2022/08/19 04:12:05;;;;;;;0.55;0.40;;;;;;;28.96;39.78;98895.22;5109459;28;20040;-60
2022/08/19 04:14:31;;;;;;;0.65;0.50;;;;;;;28.97;39.98;98905.25;5109572;28;20112;-67
2022/08/19 04:16:58;;;;;;;0.93;0.60;;;;;;;28.97;39.99;98904.47;5109520;28;20039;-59
2022/08/19 04:19:24;;;;;;;0.75;0.50;;;;;;;28.96;39.99;98905.69;5109494;28;20042;-59
2022/08/19 04:21:53;;;;;;;0.50;0.50;;;;;;;28.97;39.84;98908.06;5109296;28;20079;-60
2022/08/19 04:24:20;;;;;;;1.02;0.60;;;;;;;28.97;40.03;98913.69;5109202;28;20075;-68
2022/08/19 04:26:47;;;;;;;0.75;0.47;;;;;;;28.96;40.02;98916.97;5109188;28;20047;-68
2022/08/19 04:29:18;;;;;;;0.70;0.40;;;;;;;28.97;39.86;98919.31;5109311;28;20126;-59
2022/08/19 04:31:44;;;;;;;0.73;0.38;;;;;;;28.96;39.80;98922.59;5108981;28;20139;-67
2022/08/19 04:34:13;;;;;;;0.55;0.40;;;;;;;28.96;40.10;98923.38;5109508;28;20050;-59
2022/08/19 04:36:41;;;;;;;0.43;0.40;;;;;;;28.95;40.04;98916.16;5109288;28;20046;-59
2022/08/19 04:39:13;;;;;;;0.70;0.50;;;;;;;28.97;39.93;98918.53;5090272;28;20415;-59
2022/08/19 04:44:23;;;;;;;0.95;0.60;;;;;;;28.96;40.04;98923.38;5109114;28;20101;-67
2022/08/19 04:46:49;;;;;;;0.63;0.45;;;;;;;28.97;40.00;98936.22;5108833;28;20478;-60
2022/08/19 04:49:16;;;;;;;0.50;0.50;;;;;;;28.96;40.21;98945.13;5109203;28;20043;-68
2022/08/19 04:51:44;;;;;;;0.65;0.50;;;;;;;28.99;39.71;98941.41;5109014;28;20043;-67
2022/08/19 04:54:09;;;;;;;0.73;0.50;;;;;;;29.00;39.88;98946.59;5109037;28;20090;-67
2022/08/19 04:56:35;;;;;;;0.70;0.50;;;;;;;29.01;39.96;98942.56;5108883;28;20138;-59
2022/08/19 04:59:04;;;;;;;1.02;0.60;;;;;;;29.01;39.85;98945.38;5110654;28;20043;-67
2022/08/19 05:01:32;;;;;;;0.47;0.40;;;;;;;29.01;40.05;98945.38;5112535;28;20063;-59
2022/08/19 05:04:00;;;;;;;0.88;0.55;;;;;;;29.01;39.73;98936.94;5112418;28;20043;-67
2022/08/19 05:06:27;;;;;;;3.30;0.50;;;;;;;29.05;40.41;98951.69;5112365;28;20139;-65
2022/08/19 05:08:52;;;;;;;11.05;1.38;;;;;;;29.03;40.59;98953.38;5112227;28;20075;-67
2022/08/19 05:11:28;;;;;;;10.98;1.33;;;;;;;29.05;40.67;98967.78;5112253;28;20128;-67
2022/08/19 05:13:54;;;;;;;26.17;2.20;;;;;;;29.07;40.67;98959.69;5112246;28;20053;-61
2022/08/19 05:16:22;;;;;;;15.32;1.30;;;;;;;29.06;40.75;98970.16;5112319;28;20126;-61
2022/08/19 05:24:19;;;;;;;10.60;1.20;;;;;;;29.09;40.70;98976.16;5112239;28;20112;-61
2022/08/19 05:26:48;;;;;;;15.25;1.20;;;;;;;29.08;40.84;98980.19;5111951;28;20415;-67
2022/08/19 05:29:16;;;;;;;15.32;1.33;;;;;;;29.10;40.61;98992.63;5111978;28;20116;-61
2022/08/19 05:31:42;;;;;;;13.82;1.30;;;;;;;29.11;40.89;98991.38;5111871;28;20047;-61
2022/08/19 05:34:09;;;;;;;13.18;1.40;;;;;;;29.11;40.79;98997.00;5111870;28;20047;-61
2022/08/19 05:36:40;;;;;;;15.60;1.30;;;;;;;29.10;40.61;98989.81;5111801;28;20469;-61
2022/08/19 05:39:08;;;;;;;11.40;1.13;;;;;;;29.08;40.96;98980.19;5109681;28;20046;-66
2022/08/19 05:41:33;;;;;;;5.72;1.25;;;;;;;29.13;40.63;98990.94;5111695;28;20089;-67
2022/08/19 05:44:05;;;;;;;8.00;1.20;;;;;;;29.14;40.68;98984.06;5111607;28;20043;-61
2022/08/19 05:46:32;;;;;;;11.82;1.52;;;;;;;29.15;40.51;98988.44;5111710;28;20120;-67
2022/08/19 05:48:58;;;;;;;14.90;1.27;;;;;;;29.14;40.47;98990.47;5111629;28;20043;-67
2022/08/19 05:51:24;;;;;;;12.57;1.25;;;;;;;29.16;40.71;98990.06;5111609;28;20080;-66
2022/08/19 05:53:50;;;;;;;4.80;1.15;;;;;;;29.15;40.35;98996.91;5111484;28;20036;-66
2022/08/19 05:56:17;;;;;;;9.07;1.20;;;;;;;29.16;40.63;98999.31;5111498;28;20500;-67
2022/08/19 05:58:44;;;;;;;10.70;1.13;;;;;;;29.16;40.65;98998.50;5111507;28;20044;-61
2022/08/19 06:01:13;;;;;;;9.07;1.10;;;;;;;29.13;40.90;98991.72;5111457;28;20047;-61
2022/08/19 06:03:39;;;;;;;5.55;1.08;;;;;;;28.99;40.93;99006.97;5111542;28;20126;-61
2022/08/19 06:06:07;;;;;;;8.07;1.10;;;;;;;28.86;41.29;99003.22;5111048;28;20173;-61
2022/08/19 06:08:34;;;;;;;7.05;1.50;;;;;;;28.65;41.20;98992.53;5111181;28;20047;-61
2022/08/19 06:11:12;;;;;;;11.65;1.00;;;;;;;28.52;42.00;99004.47;5110416;28;20062;-61
2022/08/19 06:13:38;;;;;;;7.88;0.90;;;;;;;28.41;42.22;99011.56;5111442;28;20476;-67
2022/08/19 06:16:04;;;;;;;4.57;1.13;;;;;;;28.34;42.25;99009.69;5111459;28;20062;-61
2022/08/19 06:18:29;;;;;;;7.07;0.93;;;;;;;28.30;42.42;99013.81;5111043;28;20058;-61
2022/08/19 06:20:55;;;;;;;7.05;0.93;;;;;;;28.30;42.57;99020.25;5110907;28;20043;-66
2022/08/19 06:23:21;;;;;;;4.55;1.00;;;;;;;28.28;42.12;99021.88;5111154;28;20048;-60
2022/08/19 06:25:47;;;;;;;6.43;0.88;;;;;;;28.27;42.44;99029.50;5110853;28;20059;-67
2022/08/19 06:28:12;;;;;;;3.60;1.08;;;;;;;28.28;42.35;99042.34;5110946;28;20035;-61
2022/08/19 06:30:38;;;;;;;7.22;1.00;;;;;;;28.31;42.15;99040.72;5110741;28;20056;-61
2022/08/19 06:33:03;;;;;;;5.72;1.13;;;;;;;28.30;42.17;99039.94;5110877;28;20066;-61
2022/08/19 06:35:29;;;;;;;3.35;0.80;;;;;;;28.34;42.10;99046.25;5111058;28;20047;-66
2022/08/19 06:37:55;;;;;;;4.03;0.93;;;;;;;28.34;42.12;99051.88;5110839;28;20054;-67
2022/08/19 06:40:20;;;;;;;9.35;1.40;;;;;;;28.33;42.17;99049.50;5110933;28;20050;-61
2022/08/19 06:42:46;;;;;;;3.78;1.00;;;;;;;28.31;42.21;99052.78;5110859;28;20081;-66
2022/08/19 06:45:11;;;;;;;6.65;1.20;;;;;;;28.32;42.35;99054.34;5110734;28;20058;-61
2022/08/19 06:47:37;;;;;;;4.68;1.25;;;;;;;28.25;42.10;99048.84;5110497;28;20043;-61
2022/08/19 06:50:03;;;;;;;2.83;0.75;;;;;;;28.30;42.14;99054.00;5110666;28;20043;-67
2022/08/19 06:52:30;;;;;;;2.47;0.85;;;;;;;28.31;41.83;99064.03;5110691;28;20044;-67
2022/08/19 06:54:56;;;;;;;4.20;0.73;;;;;;;28.31;41.95;99058.41;5110634;28;20097;-61
2022/08/19 06:57:24;;;;;;;1.55;0.60;;;;;;;28.24;41.95;99058.53;5110607;28;20044;-61
2022/08/19 06:59:49;;;;;;;2.55;0.73;;;;;;;28.28;41.90;99059.22;5110718;28;20549;-67
2022/08/19 07:02:15;;;;;;;5.25;0.80;;;;;;;28.19;42.40;99067.47;5110559;28;20168;-67
2022/08/19 07:04:41;;;;;;;1.95;1.02;;;;;;;28.21;42.50;99060.16;5110281;28;20051;-67
2022/08/19 07:07:12;;;;;;;4.00;0.70;;;;;;;28.27;42.36;99071.69;5110098;28;20044;-67
2022/08/19 07:09:43;;;;;;;3.65;0.77;;;;;;;28.28;42.46;99070.47;5106669;28;20047;-61
2022/08/19 07:12:13;;;;;;;6.38;1.35;;;;;;;28.33;42.44;99066.41;5101035;28;20491;-60
2022/08/19 07:14:39;;;;;;;1.73;0.80;;;;;;;28.40;42.21;99078.28;5094072;28;20507;-65
2022/08/19 07:17:09;;;;;;;1.90;0.80;;;;;;;28.43;42.95;99090.69;5095449;28;20040;-63
2022/08/19 07:19:36;;;;;;;3.03;1.00;;;;;;;28.41;43.50;99095.94;5102806;28;20035;-60
2022/08/19 07:22:04;;;;;;;2.95;0.90;;;;;;;28.36;44.13;99097.28;5094566;28;20048;-65
2022/08/19 07:24:30;;;;;;;3.05;1.17;;;;;;;28.29;44.71;99094.59;5089699;28;20055;-60
2022/08/19 07:27:00;;;;;;;3.95;1.40;;;;;;;28.27;45.38;99096.22;5094466;28;20044;-59
2022/08/19 07:29:26;;;;;;;3.47;1.13;;;;;;;28.21;45.14;99093.13;5097367;28;20066;-60
2022/08/19 07:31:55;;;;;;;2.17;1.00;;;;;;;28.17;45.09;99098.84;5098027;28;20052;-64
2022/08/19 07:34:21;;;;;;;5.38;1.30;;;;;;;28.09;46.07;99097.41;5093703;28;20465;-63
2022/08/19 07:36:47;;;;;;;4.10;1.38;;;;;;;28.06;46.04;99094.63;5105175;28;20496;-60
2022/08/19 07:39:18;;;;;;;1.65;0.90;;;;;;;27.98;45.71;99094.78;5100366;28;20534;-60
2022/08/19 07:41:45;;;;;;;2.37;1.00;;;;;;;27.90;46.24;99089.72;5102588;28;20072;-60
2022/08/19 07:44:12;;;;;;;3.03;1.10;;;;;;;27.92;45.87;99098.53;5096353;28;20420;-59
2022/08/19 07:46:41;;;;;;;2.75;0.85;;;;;;;27.91;45.51;99094.91;5091266;28;20054;-60
2022/08/19 07:49:08;;;;;;;2.08;0.80;;;;;;;27.98;45.23;99102.41;5100610;28;20040;-60
2022/08/19 07:51:34;;;;;;;3.13;0.70;;;;;;;28.02;44.82;99114.41;5092574;28;20048;-66
2022/08/19 07:53:59;;;;;;;4.13;0.95;;;;;;;28.03;44.18;99113.19;5089145;28;20138;-60
2022/08/19 07:56:25;;;;;;;2.05;0.70;;;;;;;28.04;44.03;99099.91;5099895;28;20036;-60
2022/08/19 07:58:52;;;;;;;1.48;0.75;;;;;;;28.06;43.33;99098.25;5098119;28;20385;-66
2022/08/19 08:01:23;;;;;;;1.60;0.63;;;;;;;28.10;42.98;99098.19;5088860;28;20560;-60
2022/08/19 08:09:29;;;;;;;1.52;0.60;;;;;;;28.10;42.19;99098.97;5089132;28;20051;-66
2022/08/19 08:11:58;;;;;;;1.15;0.60;;;;;;;28.10;42.11;99104.59;5075261;28;20107;-60
2022/08/19 08:14:29;;;;;;;1.35;0.55;;;;;;;28.15;42.12;99106.13;5098504;28;20032;-61
2022/08/19 08:16:55;;;;;;;2.55;0.85;;;;;;;28.17;42.06;99109.28;5092556;28;20044;-61
2022/08/19 08:19:23;;;;;;;1.10;0.40;;;;;;;28.20;41.96;99105.59;5095441;28;20039;-66
2022/08/19 08:21:51;;;;;;;1.23;0.65;;;;;;;28.22;41.81;99106.78;5096064;28;21545;-61
2022/08/19 08:24:17;;;;;;;1.00;0.60;;;;;;;28.23;41.69;99108.34;5095055;28;20032;-61
2022/08/19 08:26:43;;;;;;;1.70;0.80;;;;;;;28.18;41.92;99116.50;5097268;28;20897;-65
2022/08/19 08:29:13;;;;;;;1.13;0.50;;;;;;;28.18;41.92;99113.69;5089113;28;20040;-63
2022/08/19 08:31:40;;;;;;;2.28;0.55;;;;;;;28.17;41.90;99120.53;5090423;28;20054;-61
2022/08/19 08:34:06;;;;;;;0.75;0.60;;;;;;;28.27;41.71;99125.13;5096493;28;20142;-62
2022/08/19 08:36:33;;;;;;;2.30;0.50;;;;;;;28.31;41.60;99114.66;5093265;28;20159;-61
2022/08/19 08:38:59;;;;;;;1.00;0.60;;;;;;;28.35;41.61;99111.75;5094232;28;20069;-64
2022/08/19 08:41:43;;;;;;;0.70;0.40;;;;;;;28.37;41.27;99115.72;5100997;28;20066;-65
2022/08/19 08:44:27;;;;;;;0.65;0.50;;;;;;;28.39;41.02;99120.91;5094447;28;20040;-66
2022/08/19 08:47:01;;;;;;;0.88;0.40;;;;;;;28.41;40.84;99130.50;5094590;28;20622;-65
2022/08/19 08:49:54;;;;;;;1.60;0.57;;;;;;;28.43;40.71;99130.06;5102338;28;20059;-61
2022/08/19 08:52:29;;;;;;;0.57;0.40;;;;;;;28.43;40.55;99128.06;5100104;28;20433;-61
2022/08/19 08:54:57;;;;;;;2.03;0.47;;;;;;;28.41;40.32;99126.91;5092193;28;20507;-65
2022/08/19 08:57:38;;;;;;;1.08;0.50;;;;;;;28.40;40.12;99120.47;5093363;28;21238;-65
2022/08/19 09:00:09;;;;;;;1.20;0.40;;;;;;;28.42;39.89;99134.91;5099760;28;20043;-66
2022/08/19 09:02:36;;;;;;;1.52;0.50;;;;;;;28.45;39.58;99130.44;5096150;28;20105;-60
2022/08/19 09:05:02;;;;;;;1.67;0.50;;;;;;;28.43;39.47;99130.88;5092619;28;20040;-60
2022/08/19 09:07:52;;;;;;;0.88;0.40;;;;;;;28.43;39.02;99128.06;5092153;28;20063;-65
2022/08/19 09:10:29;;;;;;;0.77;0.40;;;;;;;28.43;39.05;99142.13;5097203;28;20055;-65
2022/08/19 09:13:07;;;;;;;0.65;0.50;;;;;;;28.43;39.03;99136.50;5106255;28;20110;-60
2022/08/19 09:15:38;;;;;;;1.20;0.50;;;;;;;28.43;38.92;99136.50;5086630;28;20043;-65
2022/08/19 09:18:04;;;;;;;1.27;0.47;;;;;;;28.44;38.91;99140.91;5098634;28;20527;-60
2022/08/19 09:20:31;;;;;;;0.95;0.50;;;;;;;28.43;38.69;99141.31;5101503;28;20040;-60
2022/08/19 09:22:58;;;;;;;1.45;0.63;;;;;;;28.45;38.68;99150.13;5091874;28;20470;-66
2022/08/19 09:25:24;;;;;;;1.67;0.70;;;;;;;28.43;38.57;99152.56;5090552;28;20040;-60
2022/08/19 09:27:53;;;;;;;0.82;0.50;;;;;;;28.41;38.38;99152.22;5095536;28;20461;-66
2022/08/19 09:30:25;;;;;;;2.70;0.80;;;;;;;28.42;38.13;99154.59;5095363;28;20542;-60
2022/08/19 09:32:54;;;;;;;1.05;0.40;;;;;;;28.41;38.14;99150.19;5094685;28;20086;-60
2022/08/19 09:35:22;;;;;;;1.52;0.73;;;;;;;28.39;38.09;99144.22;5099006;28;20419;-61
2022/08/19 09:37:49;;;;;;;1.70;0.60;;;;;;;28.39;38.08;99161.09;5097262;28;20052;-65
2022/08/19 09:40:15;;;;;;;2.38;0.50;;;;;;;28.31;38.36;99148.41;5095040;28;20076;-61
2022/08/19 09:42:43;;;;;;;0.88;0.32;;;;;;;28.26;38.76;99151.69;5095704;28;20040;-66
2022/08/19 09:45:09;;;;;;;1.13;0.50;;;;;;;28.29;38.80;99153.66;5082188;28;20036;-66
2022/08/19 09:47:37;;;;;;;0.40;0.40;;;;;;;28.27;39.23;99155.28;5076271;28;20127;-66
2022/08/19 09:50:05;;;;;;;0.90;0.50;;;;;;;28.28;39.30;99166.09;5092473;28;20458;-66
2022/08/19 09:52:31;;;;;;;0.65;0.43;;;;;;;28.33;39.32;99153.59;5089680;28;20040;-61
2022/08/19 09:54:56;;;;;;;1.30;0.50;;;;;;;28.33;39.27;99157.19;5090521;28;20051;-66
2022/08/19 09:57:21;;;;;;;1.52;0.60;;;;;;;28.38;39.49;99164.34;5093144;28;20043;-66
2022/08/19 09:59:47;;;;;;;1.50;0.40;;;;;;;28.31;39.53;99165.28;5090528;28;20427;-66
2022/08/19 10:02:13;;;;;;;0.82;0.47;;;;;;;28.36;39.57;99170.41;5088851;28;20514;-66
2022/08/19 10:07:22;;;;;;;0.43;0.30;;;;;;;28.44;39.08;99166.22;5102187;28;20105;-66
2022/08/19 10:09:48;;;;;;;2.75;0.52;;;;;;;28.46;39.19;99165.78;5094914;28;20028;-66
2022/08/19 10:12:15;;;;;;;1.35;0.50;;;;;;;28.45;39.07;99165.00;5089699;28;20039;-60
2022/08/19 10:14:40;;;;;;;0.75;0.43;;;;;;;28.48;38.94;99154.88;5095299;28;20089;-60
2022/08/19 10:17:06;;;;;;;3.03;0.40;;;;;;;28.50;38.79;99161.69;5091318;28;20036;-60
2022/08/19 10:19:35;;;;;;;1.00;0.52;;;;;;;28.49;38.73;99167.72;5092213;28;20408;-67
2022/08/19 10:22:05;;;;;;;0.63;0.30;;;;;;;28.49;38.81;99164.91;5085729;28;20055;-65
2022/08/19 10:24:30;;;;;;;0.57;0.40;;;;;;;28.46;38.88;99160.94;5087109;28;20044;-61
2022/08/19 10:26:56;;;;;;;2.70;0.60;;;;;;;28.52;38.82;99173.28;5095899;28;20055;-61
2022/08/19 10:29:21;;;;;;;0.57;0.40;;;;;;;28.41;38.94;99164.25;5093610;28;20048;-61
2022/08/19 10:31:47;;;;;;;0.50;0.30;;;;;;;28.41;39.08;99175.50;5101419;28;20036;-61
2022/08/19 10:34:12;;;;;;;1.73;0.50;;;;;;;28.35;39.19;99165.19;5100835;28;20055;-67
2022/08/19 10:36:38;;;;;;;1.60;0.40;;;;;;;28.34;39.25;99172.84;5107718;28;20032;-61
2022/08/19 10:39:08;;;;;;;0.68;0.52;;;;;;;28.26;39.36;99168.56;5096157;28;20062;-61
2022/08/19 10:41:36;;;;;;;0.80;0.40;;;;;;;28.28;39.42;99176.56;5110477;28;20043;-67
2022/08/19 10:44:10;;;;;;;0.93;0.50;;;;;;;28.29;39.45;99178.97;5097105;28;20044;-67
2022/08/19 10:46:40;;;;;;;0.60;0.40;;;;;;;28.23;39.51;99175.84;5105690;28;20052;-67
2022/08/19 10:49:06;;;;;;;0.98;0.47;;;;;;;28.18;39.82;99181.19;5102881;28;20043;-67
2022/08/19 10:54:17;;;;;;;0.57;0.40;;;;;;;28.15;39.93;99180.03;5089934;28;20155;-67
2022/08/19 10:56:51;;;;;;;0.85;0.40;;;;;;;28.19;39.95;99180.75;5089094;28;20051;-67
2022/08/19 10:59:27;;;;;;;1.33;0.45;;;;;;;28.24;39.81;99187.91;5086923;28;20132;-61
2022/08/19 11:01:54;;;;;;;1.17;0.40;;;;;;;28.22;40.00;99196.78;5101767;28;20085;-61
2022/08/19 11:04:20;;;;;;;0.80;0.52;;;;;;;28.20;40.05;99184.34;5091862;28;20048;-67
2022/08/19 11:06:48;;;;;;;1.90;0.50;;;;;;;28.18;40.39;99189.63;5093111;28;20059;-67
2022/08/19 11:09:16;;;;;;;0.70;0.40;;;;;;;28.18;40.08;99192.44;5087376;28;20094;-61
2022/08/19 11:11:42;;;;;;;0.50;0.35;;;;;;;28.23;40.07;99186.31;5092543;28;20044;-67
2022/08/19 11:14:13;;;;;;;0.38;0.38;;;;;;;28.25;40.06;99192.28;5094221;28;20036;-61
2022/08/19 11:16:39;;;;;;;0.40;0.40;;;;;;;28.23;40.23;99186.31;5099638;28;20050;-67
2022/08/19 11:19:07;;;;;;;0.82;0.40;;;;;;;28.27;40.28;99197.47;5098660;28;20120;-67
2022/08/19 11:21:36;;;;;;;0.88;0.30;;;;;;;28.28;40.16;99194.22;5099817;28;20166;-67
2022/08/19 11:24:07;;;;;;;1.92;0.50;;;;;;;28.25;39.92;99197.91;5085265;28;20063;-60
2022/08/19 11:26:33;;;;;;;1.05;0.30;;;;;;;28.31;40.43;99192.63;5085218;28;20134;-61
2022/08/19 11:29:00;;;;;;;0.80;0.50;;;;;;;28.27;40.12;99195.47;5087478;28;20051;-61
2022/08/19 11:31:33;;;;;;;1.05;0.50;;;;;;;28.27;40.28;99194.66;5080841;28;20124;-67
2022/08/19 11:34:01;;;;;;;0.47;0.30;;;;;;;28.24;40.27;99187.91;5096403;28;20040;-61
2022/08/19 11:36:27;;;;;;;0.50;0.30;;;;;;;28.20;40.62;99201.22;5088771;28;20032;-61
2022/08/19 11:38:53;;;;;;;1.08;0.50;;;;;;;28.16;40.71;99197.69;5093141;28;20040;-61
2022/08/19 11:41:22;;;;;;;0.82;0.60;;;;;;;28.18;40.61;99198.06;5084083;28;20461;-61
2022/08/19 11:43:49;;;;;;;0.82;0.50;;;;;;;28.19;40.61;99196.81;5103051;28;20043;-61
2022/08/19 11:46:16;;;;;;;0.70;0.43;;;;;;;28.22;40.45;99195.97;5096247;28;20044;-60
2022/08/19 11:48:42;;;;;;;0.40;0.40;;;;;;;28.25;40.48;99195.91;5085909;28;20551;-61
2022/08/19 11:51:11;;;;;;;0.50;0.40;;;;;;;28.25;40.54;99198.72;5069286;28;20101;-67
2022/08/19 11:53:38;;;;;;;0.50;0.40;;;;;;;28.26;40.48;99202.31;5068998;28;20098;-67
2022/08/19 11:56:05;;;;;;;0.40;0.40;;;;;;;28.22;40.47;99196.78;5068854;28;20393;-67